sensor_id;sensor_type;location;lat;lon;timestamp;pressure;altitude;pressure_sealevel;temperature;humidity
56040;BME280;43937;41.366;2.072;2024-03-02T00:00:50;100207.66;;;14.56;49.52
56040;BME280;43937;41.366;2.072;2024-03-02T00:03:16;100202.72;;;14.44;48.63
56040;BME280;43937;41.366;2.072;2024-03-02T00:05:42;100216.69;;;14.56;48.03
56040;BME280;43937;41.366;2.072;2024-03-02T00:08:07;100184.16;;;14.40;48.41
56040;BME280;43937;41.366;2.072;2024-03-02T00:10:38;100220.47;;;14.55;47.82
56040;BME280;43937;41.366;2.072;2024-03-02T00:13:10;100199.28;;;14.29;47.94
56040;BME280;43937;41.366;2.072;2024-03-02T00:15:47;100220.81;;;14.39;48.25
56040;BME280;43937;41.366;2.072;2024-03-02T00:20:53;100206.13;;;14.05;47.94
56040;BME280;43937;41.366;2.072;2024-03-02T00:23:20;100208.78;;;13.92;47.97
56040;BME280;43937;41.366;2.072;2024-03-02T00:25:50;100204.06;;;13.79;48.08
56040;BME280;43937;41.366;2.072;2024-03-02T00:28:44;100207.41;;;13.74;47.51
56040;BME280;43937;41.366;2.072;2024-03-02T00:31:13;100188.78;;;13.57;47.81
56040;BME280;43937;41.366;2.072;2024-03-02T00:33:43;100210.44;;;13.58;47.67
56040;BME280;43937;41.366;2.072;2024-03-02T00:36:12;100180.88;;;13.40;47.53
56040;BME280;43937;41.366;2.072;2024-03-02T00:38:48;100191.78;;;13.62;47.35
56040;BME280;43937;41.366;2.072;2024-03-02T00:44:02;100210.38;;;13.80;46.59
56040;BME280;43937;41.366;2.072;2024-03-02T00:46:34;100200.59;;;13.92;46.40
56040;BME280;43937;41.366;2.072;2024-03-02T00:49:17;100209.25;;;14.02;46.48
56040;BME280;43937;41.366;2.072;2024-03-02T00:51:47;100216.84;;;14.07;46.15
56040;BME280;43937;41.366;2.072;2024-03-02T00:54:19;100198.31;;;14.02;46.15
56040;BME280;43937;41.366;2.072;2024-03-02T00:56:44;100200.81;;;13.97;46.78
56040;BME280;43937;41.366;2.072;2024-03-02T00:59:10;100207.91;;;13.85;46.54
56040;BME280;43937;41.366;2.072;2024-03-02T01:01:36;100201.16;;;13.81;47.01
56040;BME280;43937;41.366;2.072;2024-03-02T01:04:01;100171.44;;;13.71;47.24
56040;BME280;43937;41.366;2.072;2024-03-02T01:06:27;100199.94;;;13.90;46.81
56040;BME280;43937;41.366;2.072;2024-03-02T01:08:53;100193.19;;;13.86;46.63
56040;BME280;43937;41.366;2.072;2024-03-02T01:11:18;100197.84;;;13.92;46.38
56040;BME280;43937;41.366;2.072;2024-03-02T01:13:45;100166.84;;;13.85;46.96
56040;BME280;43937;41.366;2.072;2024-03-02T01:16:11;100191.38;;;14.06;45.98
56040;BME280;43937;41.366;2.072;2024-03-02T01:18:36;100181.16;;;13.80;46.31
56040;BME280;43937;41.366;2.072;2024-03-02T01:21:02;100182.28;;;13.92;46.73
56040;BME280;43937;41.366;2.072;2024-03-02T01:23:28;100178.06;;;13.90;46.71
56040;BME280;43937;41.366;2.072;2024-03-02T01:25:53;100171.06;;;13.81;46.19
56040;BME280;43937;41.366;2.072;2024-03-02T01:28:20;100187.34;;;13.95;46.82
56040;BME280;43937;41.366;2.072;2024-03-02T01:30:46;100191.78;;;14.03;46.41
56040;BME280;43937;41.366;2.072;2024-03-02T01:33:11;100177.69;;;14.06;46.16
56040;BME280;43937;41.366;2.072;2024-03-02T01:35:37;100180.00;;;14.03;46.79
56040;BME280;43937;41.366;2.072;2024-03-02T01:38:03;100164.56;;;13.88;46.39
56040;BME280;43937;41.366;2.072;2024-03-02T01:40:29;100163.31;;;13.91;46.37
56040;BME280;43937;41.366;2.072;2024-03-02T01:42:54;100165.47;;;14.02;46.11
56040;BME280;43937;41.366;2.072;2024-03-02T01:45:21;100168.41;;;14.01;46.36
56040;BME280;43937;41.366;2.072;2024-03-02T01:47:47;100162.03;;;13.87;46.89
56040;BME280;43937;41.366;2.072;2024-03-02T01:50:12;100140.16;;;13.87;46.36
56040;BME280;43937;41.366;2.072;2024-03-02T01:52:39;100134.28;;;13.90;46.13
56040;BME280;43937;41.366;2.072;2024-03-02T01:55:05;100119.88;;;13.68;46.75
56040;BME280;43937;41.366;2.072;2024-03-02T01:57:31;100117.72;;;13.63;46.87
56040;BME280;43937;41.366;2.072;2024-03-02T01:59:57;100109.50;;;13.57;47.08
56040;BME280;43937;41.366;2.072;2024-03-02T02:02:23;100135.50;;;13.81;47.08
56040;BME280;43937;41.366;2.072;2024-03-02T02:04:49;100146.47;;;13.87;47.07
56040;BME280;43937;41.366;2.072;2024-03-02T02:07:14;100137.53;;;13.72;47.39
56040;BME280;43937;41.366;2.072;2024-03-02T02:09:41;100140.22;;;13.59;47.43
56040;BME280;43937;41.366;2.072;2024-03-02T02:12:07;100130.31;;;13.58;47.32
56040;BME280;43937;41.366;2.072;2024-03-02T02:14:33;100127.13;;;13.54;47.71
56040;BME280;43937;41.366;2.072;2024-03-02T02:16:59;100128.25;;;13.66;47.91
56040;BME280;43937;41.366;2.072;2024-03-02T02:19:24;100111.06;;;13.38;48.10
56040;BME280;43937;41.366;2.072;2024-03-02T02:21:50;100110.44;;;13.42;47.96
56040;BME280;43937;41.366;2.072;2024-03-02T02:24:15;100121.91;;;13.59;48.28
56040;BME280;43937;41.366;2.072;2024-03-02T02:26:40;100118.13;;;13.60;47.54
56040;BME280;43937;41.366;2.072;2024-03-02T02:29:06;100114.59;;;13.66;47.81
56040;BME280;43937;41.366;2.072;2024-03-02T02:31:41;100110.16;;;13.65;47.81
56040;BME280;43937;41.366;2.072;2024-03-02T02:34:06;100085.34;;;13.67;47.39
56040;BME280;43937;41.366;2.072;2024-03-02T02:36:33;100094.22;;;13.75;47.32
56040;BME280;43937;41.366;2.072;2024-03-02T02:39:03;100094.59;;;13.66;47.35
56040;BME280;43937;41.366;2.072;2024-03-02T02:41:30;100087.47;;;13.71;47.69
56040;BME280;43937;41.366;2.072;2024-03-02T02:43:55;100089.81;;;13.74;47.31
56040;BME280;43937;41.366;2.072;2024-03-02T02:46:21;100067.69;;;13.69;47.41
56040;BME280;43937;41.366;2.072;2024-03-02T02:48:46;100085.88;;;13.90;46.90
56040;BME280;43937;41.366;2.072;2024-03-02T02:51:12;100067.56;;;13.91;47.17
56040;BME280;43937;41.366;2.072;2024-03-02T02:53:37;100074.53;;;13.93;47.47
56040;BME280;43937;41.366;2.072;2024-03-02T02:56:06;100073.28;;;14.09;47.07
56040;BME280;43937;41.366;2.072;2024-03-02T02:58:31;100057.03;;;13.94;47.47
56040;BME280;43937;41.366;2.072;2024-03-02T03:00:57;100055.94;;;13.75;47.20
56040;BME280;43937;41.366;2.072;2024-03-02T03:03:22;100021.81;;;13.65;47.07
56040;BME280;43937;41.366;2.072;2024-03-02T03:05:48;100034.28;;;13.81;46.98
56040;BME280;43937;41.366;2.072;2024-03-02T03:08:14;100048.00;;;13.94;47.23
56040;BME280;43937;41.366;2.072;2024-03-02T03:10:41;100037.28;;;13.99;46.99
56040;BME280;43937;41.366;2.072;2024-03-02T03:13:06;100029.50;;;14.03;46.67
56040;BME280;43937;41.366;2.072;2024-03-02T03:15:34;100026.34;;;13.99;46.75
56040;BME280;43937;41.366;2.072;2024-03-02T03:18:01;100023.59;;;13.99;46.63
56040;BME280;43937;41.366;2.072;2024-03-02T03:20:28;100055.19;;;14.08;46.58
56040;BME280;43937;41.366;2.072;2024-03-02T03:22:54;100038.34;;;14.05;47.15
56040;BME280;43937;41.366;2.072;2024-03-02T03:25:19;100035.81;;;13.96;46.85
56040;BME280;43937;41.366;2.072;2024-03-02T03:27:45;100059.44;;;14.17;46.32
56040;BME280;43937;41.366;2.072;2024-03-02T03:30:11;100060.69;;;14.15;46.46
56040;BME280;43937;41.366;2.072;2024-03-02T03:32:37;100056.88;;;14.09;47.36
56040;BME280;43937;41.366;2.072;2024-03-02T03:35:03;100057.44;;;13.91;47.43
56040;BME280;43937;41.366;2.072;2024-03-02T03:37:29;100036.34;;;13.65;47.66
56040;BME280;43937;41.366;2.072;2024-03-02T03:39:59;100034.94;;;13.35;48.03
56040;BME280;43937;41.366;2.072;2024-03-02T03:42:24;100031.75;;;13.03;49.13
56040;BME280;43937;41.366;2.072;2024-03-02T03:44:49;100052.31;;;12.99;49.20
56040;BME280;43937;41.366;2.072;2024-03-02T03:47:15;100039.31;;;12.73;50.13
56040;BME280;43937;41.366;2.072;2024-03-02T03:49:40;100044.97;;;12.99;49.39
56040;BME280;43937;41.366;2.072;2024-03-02T03:52:06;100045.41;;;13.03;49.60
56040;BME280;43937;41.366;2.072;2024-03-02T03:54:31;100044.03;;;13.14;48.70
56040;BME280;43937;41.366;2.072;2024-03-02T03:56:57;100018.13;;;13.10;48.84
56040;BME280;43937;41.366;2.072;2024-03-02T03:59:22;100028.38;;;13.29;48.51
56040;BME280;43937;41.366;2.072;2024-03-02T04:01:49;100010.03;;;13.23;48.82
56040;BME280;43937;41.366;2.072;2024-03-02T04:04:14;100040.84;;;13.38;48.79
56040;BME280;43937;41.366;2.072;2024-03-02T04:06:40;100045.47;;;13.38;48.66
56040;BME280;43937;41.366;2.072;2024-03-02T04:09:05;100040.25;;;13.49;48.31
56040;BME280;43937;41.366;2.072;2024-03-02T04:11:31;100033.94;;;13.49;48.68
56040;BME280;43937;41.366;2.072;2024-03-02T04:13:56;100022.94;;;13.36;48.98
56040;BME280;43937;41.366;2.072;2024-03-02T04:16:22;100013.47;;;13.32;48.79
56040;BME280;43937;41.366;2.072;2024-03-02T04:18:48;100019.16;;;13.43;48.71
56040;BME280;43937;41.366;2.072;2024-03-02T04:21:13;100009.69;;;13.33;48.80
56040;BME280;43937;41.366;2.072;2024-03-02T04:23:39;100014.16;;;13.47;48.74
56040;BME280;43937;41.366;2.072;2024-03-02T04:26:04;100003.59;;;13.37;48.37
56040;BME280;43937;41.366;2.072;2024-03-02T04:28:29;100009.09;;;13.44;49.01
56040;BME280;43937;41.366;2.072;2024-03-02T04:30:55;99993.69;;;13.29;48.66
56040;BME280;43937;41.366;2.072;2024-03-02T04:33:20;100008.19;;;13.30;49.20
56040;BME280;43937;41.366;2.072;2024-03-02T04:35:46;100007.56;;;13.00;49.75
56040;BME280;43937;41.366;2.072;2024-03-02T04:38:11;100024.75;;;12.94;49.94
56040;BME280;43937;41.366;2.072;2024-03-02T04:40:37;100004.50;;;12.81;49.78
56040;BME280;43937;41.366;2.072;2024-03-02T04:43:03;100001.97;;;12.80;49.84
56040;BME280;43937;41.366;2.072;2024-03-02T04:45:29;99999.66;;;12.77;50.25
56040;BME280;43937;41.366;2.072;2024-03-02T04:47:54;99985.19;;;12.83;49.75
56040;BME280;43937;41.366;2.072;2024-03-02T04:50:20;99983.75;;;12.87;49.70
56040;BME280;43937;41.366;2.072;2024-03-02T04:52:45;99993.50;;;13.03;49.97
56040;BME280;43937;41.366;2.072;2024-03-02T04:55:10;99973.91;;;12.93;49.33
56040;BME280;43937;41.366;2.072;2024-03-02T04:57:55;99995.84;;;13.13;49.20
56040;BME280;43937;41.366;2.072;2024-03-02T05:00:21;99977.34;;;13.08;49.52
56040;BME280;43937;41.366;2.072;2024-03-02T05:02:46;99961.25;;;12.85;49.27
56040;BME280;43937;41.366;2.072;2024-03-02T05:05:12;99990.50;;;12.98;49.89
56040;BME280;43937;41.366;2.072;2024-03-02T05:07:37;99975.97;;;12.91;49.82
56040;BME280;43937;41.366;2.072;2024-03-02T05:10:03;99996.31;;;12.81;50.08
56040;BME280;43937;41.366;2.072;2024-03-02T05:12:29;99973.28;;;12.63;50.38
56040;BME280;43937;41.366;2.072;2024-03-02T05:15:10;99991.09;;;12.87;50.16
56040;BME280;43937;41.366;2.072;2024-03-02T05:17:37;99992.69;;;12.74;50.02
56040;BME280;43937;41.366;2.072;2024-03-02T05:20:06;99985.19;;;12.55;50.23
56040;BME280;43937;41.366;2.072;2024-03-02T05:22:33;99978.25;;;12.31;51.14
56040;BME280;43937;41.366;2.072;2024-03-02T05:24:59;99971.41;;;12.13;51.52
56040;BME280;43937;41.366;2.072;2024-03-02T05:27:26;99984.72;;;12.23;51.85
56040;BME280;43937;41.366;2.072;2024-03-02T05:29:51;99978.03;;;12.04;51.34
56040;BME280;43937;41.366;2.072;2024-03-02T05:32:17;99960.56;;;11.99;52.11
56040;BME280;43937;41.366;2.072;2024-03-02T05:34:42;99978.88;;;12.26;51.59
56040;BME280;43937;41.366;2.072;2024-03-02T05:37:07;99982.16;;;12.43;50.81
56040;BME280;43937;41.366;2.072;2024-03-02T05:39:33;99959.25;;;12.37;51.32
56040;BME280;43937;41.366;2.072;2024-03-02T05:41:59;99957.94;;;12.33;51.36
56040;BME280;43937;41.366;2.072;2024-03-02T05:44:24;99967.66;;;12.43;50.96
56040;BME280;43937;41.366;2.072;2024-03-02T05:46:49;99960.91;;;12.38;51.08
56040;BME280;43937;41.366;2.072;2024-03-02T05:49:15;99979.09;;;12.53;50.55
56040;BME280;43937;41.366;2.072;2024-03-02T05:51:41;99979.63;;;12.42;51.14
56040;BME280;43937;41.366;2.072;2024-03-02T05:54:06;99962.16;;;12.36;51.23
56040;BME280;43937;41.366;2.072;2024-03-02T05:56:32;99954.94;;;12.28;51.34
56040;BME280;43937;41.366;2.072;2024-03-02T05:58:58;99952.03;;;12.30;51.00
56040;BME280;43937;41.366;2.072;2024-03-02T06:01:38;99938.97;;;12.04;51.68
56040;BME280;43937;41.366;2.072;2024-03-02T06:04:03;99960.00;;;12.31;51.46
56040;BME280;43937;41.366;2.072;2024-03-02T06:06:29;99949.28;;;12.30;51.01
56040;BME280;43937;41.366;2.072;2024-03-02T06:08:54;99953.78;;;12.16;51.88
56040;BME280;43937;41.366;2.072;2024-03-02T06:11:20;99956.59;;;12.23;51.57
56040;BME280;43937;41.366;2.072;2024-03-02T06:13:46;99972.50;;;12.41;51.50
56040;BME280;43937;41.366;2.072;2024-03-02T06:16:12;99970.03;;;12.24;51.49
56040;BME280;43937;41.366;2.072;2024-03-02T06:18:37;99968.88;;;12.12;51.92
56040;BME280;43937;41.366;2.072;2024-03-02T06:21:03;99956.50;;;12.16;52.03
56040;BME280;43937;41.366;2.072;2024-03-02T06:23:28;99966.25;;;12.25;51.95
56040;BME280;43937;41.366;2.072;2024-03-02T06:25:54;99964.31;;;12.41;51.40
56040;BME280;43937;41.366;2.072;2024-03-02T06:28:19;99953.97;;;12.36;51.01
56040;BME280;43937;41.366;2.072;2024-03-02T06:30:46;99965.59;;;12.45;51.16
56040;BME280;43937;41.366;2.072;2024-03-02T06:33:11;99962.66;;;12.46;51.37
56040;BME280;43937;41.366;2.072;2024-03-02T06:35:36;99942.06;;;12.44;50.79
56040;BME280;43937;41.366;2.072;2024-03-02T06:38:02;99930.16;;;12.51;50.94
56040;BME280;43937;41.366;2.072;2024-03-02T06:40:27;99956.28;;;12.67;50.85
56040;BME280;43937;41.366;2.072;2024-03-02T06:42:53;99951.53;;;12.76;50.52
56040;BME280;43937;41.366;2.072;2024-03-02T06:45:19;99970.94;;;12.88;50.36
56040;BME280;43937;41.366;2.072;2024-03-02T06:47:44;99962.72;;;12.88;49.87
56040;BME280;43937;41.366;2.072;2024-03-02T06:50:10;99954.94;;;12.84;50.22
56040;BME280;43937;41.366;2.072;2024-03-02T06:52:35;99969.56;;;13.05;49.96
56040;BME280;43937;41.366;2.072;2024-03-02T06:55:01;99978.19;;;13.09;49.77
56040;BME280;43937;41.366;2.072;2024-03-02T06:57:27;99977.03;;;12.90;50.11
56040;BME280;43937;41.366;2.072;2024-03-02T06:59:52;99979.38;;;12.93;50.75
56040;BME280;43937;41.366;2.072;2024-03-02T07:02:20;99986.66;;;12.86;50.69
56040;BME280;43937;41.366;2.072;2024-03-02T07:04:46;99975.56;;;12.59;51.07
56040;BME280;43937;41.366;2.072;2024-03-02T07:07:12;99986.84;;;12.77;50.79
56040;BME280;43937;41.366;2.072;2024-03-02T07:09:37;99965.56;;;12.73;50.62
56040;BME280;43937;41.366;2.072;2024-03-02T07:12:03;99962.16;;;12.92;50.13
56040;BME280;43937;41.366;2.072;2024-03-02T07:14:29;99965.19;;;13.11;49.80
56040;BME280;43937;41.366;2.072;2024-03-02T07:17:13;99944.97;;;13.05;49.39
56040;BME280;43937;41.366;2.072;2024-03-02T07:19:38;99953.72;;;12.94;49.42
56040;BME280;43937;41.366;2.072;2024-03-02T07:22:07;99953.97;;;13.34;49.05
56040;BME280;43937;41.366;2.072;2024-03-02T07:24:43;99942.69;;;13.50;48.26
56040;BME280;43937;41.366;2.072;2024-03-02T07:27:09;99968.66;;;13.94;46.94
56040;BME280;43937;41.366;2.072;2024-03-02T07:29:36;99964.69;;;14.16;46.66
56040;BME280;43937;41.366;2.072;2024-03-02T07:32:01;99973.31;;;14.40;46.38
56040;BME280;43937;41.366;2.072;2024-03-02T07:34:27;99955.22;;;14.39;45.76
56040;BME280;43937;41.366;2.072;2024-03-02T07:36:55;99968.72;;;14.60;45.75
56040;BME280;43937;41.366;2.072;2024-03-02T07:39:21;99942.78;;;14.76;45.06
56040;BME280;43937;41.366;2.072;2024-03-02T07:41:46;99945.69;;;15.01;44.55
56040;BME280;43937;41.366;2.072;2024-03-02T07:44:12;99947.56;;;15.07;44.68
56040;BME280;43937;41.366;2.072;2024-03-02T07:46:45;99928.53;;;15.64;43.90
56040;BME280;43937;41.366;2.072;2024-03-02T07:49:16;99960.78;;;19.52;36.67
56040;BME280;43937;41.366;2.072;2024-03-02T07:51:42;99959.03;;;22.41;32.63
56040;BME280;43937;41.366;2.072;2024-03-02T07:54:08;99945.06;;;23.01;30.62
56040;BME280;43937;41.366;2.072;2024-03-02T07:56:34;99963.41;;;24.63;28.44
56040;BME280;43937;41.366;2.072;2024-03-02T07:59:01;99971.41;;;25.96;26.30
56040;BME280;43937;41.366;2.072;2024-03-02T08:01:30;99961.94;;;26.37;25.53
56040;BME280;43937;41.366;2.072;2024-03-02T08:04:00;99973.63;;;25.99;25.68
56040;BME280;43937;41.366;2.072;2024-03-02T08:06:27;99979.81;;;26.31;24.96
56040;BME280;43937;41.366;2.072;2024-03-02T08:08:56;99978.38;;;25.08;26.96
56040;BME280;43937;41.366;2.072;2024-03-02T08:11:22;99988.44;;;24.74;27.89
56040;BME280;43937;41.366;2.072;2024-03-02T08:13:48;99977.75;;;25.42;26.99
56040;BME280;43937;41.366;2.072;2024-03-02T08:16:17;99982.94;;;27.27;24.98
56040;BME280;43937;41.366;2.072;2024-03-02T08:18:47;99978.03;;;27.61;23.25
56040;BME280;43937;41.366;2.072;2024-03-02T08:21:13;99968.41;;;27.73;23.75
56040;BME280;43937;41.366;2.072;2024-03-02T08:23:38;99975.84;;;29.37;23.44
56040;BME280;43937;41.366;2.072;2024-03-02T08:26:06;99967.84;;;29.58;22.53
56040;BME280;43937;41.366;2.072;2024-03-02T08:28:32;99972.94;;;29.29;22.27
56040;BME280;43937;41.366;2.072;2024-03-02T08:30:58;99976.72;;;29.65;21.36
56040;BME280;43937;41.366;2.072;2024-03-02T08:33:26;99949.38;;;29.85;21.35
56040;BME280;43937;41.366;2.072;2024-03-02T08:35:52;99952.38;;;29.47;21.92
56040;BME280;43937;41.366;2.072;2024-03-02T08:38:17;99938.19;;;30.07;21.74
56040;BME280;43937;41.366;2.072;2024-03-02T08:40:44;99931.72;;;29.71;20.98
56040;BME280;43937;41.366;2.072;2024-03-02T08:43:09;99956.81;;;30.03;21.21
56040;BME280;43937;41.366;2.072;2024-03-02T08:45:35;99938.66;;;29.87;21.47
56040;BME280;43937;41.366;2.072;2024-03-02T08:48:01;99929.13;;;29.60;21.89
56040;BME280;43937;41.366;2.072;2024-03-02T08:50:26;99932.66;;;29.52;22.28
56040;BME280;43937;41.366;2.072;2024-03-02T08:52:51;99927.75;;;29.44;22.72
56040;BME280;43937;41.366;2.072;2024-03-02T08:55:17;99920.81;;;29.28;21.97
56040;BME280;43937;41.366;2.072;2024-03-02T08:57:42;99903.63;;;28.74;23.87
56040;BME280;43937;41.366;2.072;2024-03-02T09:00:08;99915.16;;;28.86;25.75
56040;BME280;43937;41.366;2.072;2024-03-02T09:02:34;99915.34;;;28.43;25.42
56040;BME280;43937;41.366;2.072;2024-03-02T09:05:00;99895.72;;;27.92;26.30
56040;BME280;43937;41.366;2.072;2024-03-02T09:07:26;99904.66;;;26.79;27.18
56040;BME280;43937;41.366;2.072;2024-03-02T09:09:51;99903.84;;;24.70;29.03
56040;BME280;43937;41.366;2.072;2024-03-02T09:12:18;99888.63;;;23.48;33.36
56040;BME280;43937;41.366;2.072;2024-03-02T09:14:43;99883.28;;;22.73;32.18
56040;BME280;43937;41.366;2.072;2024-03-02T09:17:09;99887.75;;;22.10;33.72
56040;BME280;43937;41.366;2.072;2024-03-02T09:19:37;99896.59;;;22.07;33.56
56040;BME280;43937;41.366;2.072;2024-03-02T09:22:02;99877.78;;;22.09;35.21
56040;BME280;43937;41.366;2.072;2024-03-02T09:24:31;99882.97;;;22.00;35.53
56040;BME280;43937;41.366;2.072;2024-03-02T09:26:56;99873.34;;;21.81;34.28
56040;BME280;43937;41.366;2.072;2024-03-02T09:29:22;99862.25;;;21.76;34.97
56040;BME280;43937;41.366;2.072;2024-03-02T09:31:47;99865.19;;;21.96;34.42
56040;BME280;43937;41.366;2.072;2024-03-02T09:34:14;99866.03;;;22.29;33.96
56040;BME280;43937;41.366;2.072;2024-03-02T09:36:40;99855.03;;;22.07;34.31
56040;BME280;43937;41.366;2.072;2024-03-02T09:39:07;99856.16;;;22.11;33.85
56040;BME280;43937;41.366;2.072;2024-03-02T09:41:35;99862.69;;;21.94;33.60
56040;BME280;43937;41.366;2.072;2024-03-02T09:44:02;99854.72;;;22.30;34.47
56040;BME280;43937;41.366;2.072;2024-03-02T09:46:28;99836.97;;;22.31;33.53
56040;BME280;43937;41.366;2.072;2024-03-02T09:48:54;99837.00;;;22.36;32.96
56040;BME280;43937;41.366;2.072;2024-03-02T09:51:19;99840.31;;;22.38;32.80
56040;BME280;43937;41.366;2.072;2024-03-02T09:53:45;99826.84;;;22.15;32.43
56040;BME280;43937;41.366;2.072;2024-03-02T09:56:12;99827.00;;;22.35;32.22
56040;BME280;43937;41.366;2.072;2024-03-02T09:58:38;99837.44;;;22.60;31.64
56040;BME280;43937;41.366;2.072;2024-03-02T10:01:07;99829.56;;;22.47;32.96
56040;BME280;43937;41.366;2.072;2024-03-02T10:03:33;99831.66;;;22.72;32.16
56040;BME280;43937;41.366;2.072;2024-03-02T10:06:24;99837.97;;;22.62;32.74
56040;BME280;43937;41.366;2.072;2024-03-02T10:08:51;99827.09;;;22.46;33.28
56040;BME280;43937;41.366;2.072;2024-03-02T10:14:06;99820.53;;;23.20;32.26
56040;BME280;43937;41.366;2.072;2024-03-02T10:16:36;99806.38;;;23.21;32.01
56040;BME280;43937;41.366;2.072;2024-03-02T10:21:46;99798.31;;;23.20;33.58
56040;BME280;43937;41.366;2.072;2024-03-02T10:24:12;99764.75;;;23.21;33.07
56040;BME280;43937;41.366;2.072;2024-03-02T10:26:38;99784.28;;;23.72;31.86
56040;BME280;43937;41.366;2.072;2024-03-02T10:29:04;99777.59;;;23.63;33.40
56040;BME280;43937;41.366;2.072;2024-03-02T10:31:30;99774.25;;;23.87;33.85
56040;BME280;43937;41.366;2.072;2024-03-02T10:33:55;99772.03;;;24.19;34.28
56040;BME280;43937;41.366;2.072;2024-03-02T10:36:22;99778.69;;;24.18;33.44
56040;BME280;43937;41.366;2.072;2024-03-02T10:38:48;99729.78;;;23.51;34.72
56040;BME280;43937;41.366;2.072;2024-03-02T10:41:18;99761.72;;;23.53;35.79
56040;BME280;43937;41.366;2.072;2024-03-02T10:43:45;99732.22;;;23.06;35.27
56040;BME280;43937;41.366;2.072;2024-03-02T10:46:13;99746.34;;;22.95;36.31
56040;BME280;43937;41.366;2.072;2024-03-02T10:48:40;99749.03;;;22.79;40.11
56040;BME280;43937;41.366;2.072;2024-03-02T10:51:06;99741.19;;;22.61;39.61
56040;BME280;43937;41.366;2.072;2024-03-02T10:53:32;99758.63;;;23.29;39.39
56040;BME280;43937;41.366;2.072;2024-03-02T10:55:58;99720.28;;;23.01;39.93
56040;BME280;43937;41.366;2.072;2024-03-02T10:58:32;99739.09;;;22.94;40.56
56040;BME280;43937;41.366;2.072;2024-03-02T11:01:03;99738.13;;;22.57;41.15
56040;BME280;43937;41.366;2.072;2024-03-02T11:03:33;99719.72;;;22.41;41.12
56040;BME280;43937;41.366;2.072;2024-03-02T11:06:00;99709.78;;;22.50;42.27
56040;BME280;43937;41.366;2.072;2024-03-02T11:08:33;99711.00;;;22.75;42.49
56040;BME280;43937;41.366;2.072;2024-03-02T11:11:06;99705.81;;;22.99;41.95
56040;BME280;43937;41.366;2.072;2024-03-02T11:13:33;99716.28;;;22.76;43.27
56040;BME280;43937;41.366;2.072;2024-03-02T11:16:12;99697.31;;;22.00;44.30
56040;BME280;43937;41.366;2.072;2024-03-02T11:18:40;99714.78;;;22.53;43.20
56040;BME280;43937;41.366;2.072;2024-03-02T11:21:07;99704.09;;;22.82;42.59
56040;BME280;43937;41.366;2.072;2024-03-02T11:23:33;99683.53;;;22.73;42.51
56040;BME280;43937;41.366;2.072;2024-03-02T11:26:18;99694.13;;;22.92;42.53
56040;BME280;43937;41.366;2.072;2024-03-02T11:28:44;99691.97;;;23.04;42.69
56040;BME280;43937;41.366;2.072;2024-03-02T11:31:09;99677.25;;;23.03;42.85
56040;BME280;43937;41.366;2.072;2024-03-02T11:33:35;99679.75;;;23.05;42.56
56040;BME280;43937;41.366;2.072;2024-03-02T11:36:00;99685.84;;;22.97;43.20
56040;BME280;43937;41.366;2.072;2024-03-02T11:38:35;99651.72;;;23.06;43.48
56040;BME280;43937;41.366;2.072;2024-03-02T11:41:07;99623.69;;;23.23;42.57
56040;BME280;43937;41.366;2.072;2024-03-02T11:43:40;99652.81;;;22.95;43.13
56040;BME280;43937;41.366;2.072;2024-03-02T11:46:07;99655.19;;;22.66;44.30
56040;BME280;43937;41.366;2.072;2024-03-02T11:48:33;99652.50;;;22.86;43.99
56040;BME280;43937;41.366;2.072;2024-03-02T11:51:00;99646.16;;;22.96;44.43
56040;BME280;43937;41.366;2.072;2024-03-02T11:53:27;99642.00;;;22.99;43.97
56040;BME280;43937;41.366;2.072;2024-03-02T11:55:58;99646.94;;;22.76;44.63
56040;BME280;43937;41.366;2.072;2024-03-02T11:58:24;99645.88;;;22.98;44.24
56040;BME280;43937;41.366;2.072;2024-03-02T12:00:55;99632.47;;;22.69;45.13
56040;BME280;43937;41.366;2.072;2024-03-02T12:03:25;99636.97;;;22.85;45.42
56040;BME280;43937;41.366;2.072;2024-03-02T12:05:54;99613.03;;;22.59;45.98
56040;BME280;43937;41.366;2.072;2024-03-02T12:08:19;99615.81;;;22.59;46.22
56040;BME280;43937;41.366;2.072;2024-03-02T12:10:59;99611.69;;;22.67;46.25
56040;BME280;43937;41.366;2.072;2024-03-02T12:13:25;99601.84;;;22.28;47.53
56040;BME280;43937;41.366;2.072;2024-03-02T12:15:53;99599.91;;;22.29;47.97
56040;BME280;43937;41.366;2.072;2024-03-02T12:18:20;99597.13;;;22.24;46.88
56040;BME280;43937;41.366;2.072;2024-03-02T12:20:46;99601.19;;;22.11;45.71
56040;BME280;43937;41.366;2.072;2024-03-02T12:23:14;99590.53;;;22.40;45.07
56040;BME280;43937;41.366;2.072;2024-03-02T12:25:39;99598.53;;;22.31;45.10
56040;BME280;43937;41.366;2.072;2024-03-02T12:28:06;99586.66;;;22.41;45.36
56040;BME280;43937;41.366;2.072;2024-03-02T12:30:35;99575.47;;;22.21;45.66
56040;BME280;43937;41.366;2.072;2024-03-02T12:33:01;99563.91;;;22.44;45.88
56040;BME280;43937;41.366;2.072;2024-03-02T12:35:27;99544.13;;;22.15;47.04
56040;BME280;43937;41.366;2.072;2024-03-02T12:37:54;99579.91;;;22.16;47.70
56040;BME280;43937;41.366;2.072;2024-03-02T12:40:21;99556.16;;;21.78;48.39
56040;BME280;43937;41.366;2.072;2024-03-02T12:42:48;99520.31;;;21.14;49.44
56040;BME280;43937;41.366;2.072;2024-03-02T12:45:15;99553.31;;;21.58;49.37
56040;BME280;43937;41.366;2.072;2024-03-02T12:47:41;99509.50;;;21.49;48.53
56040;BME280;43937;41.366;2.072;2024-03-02T12:50:08;99510.78;;;20.99;50.37
56040;BME280;43937;41.366;2.072;2024-03-02T12:52:34;99540.03;;;20.85;50.42
56040;BME280;43937;41.366;2.072;2024-03-02T12:55:02;99518.34;;;21.09;49.14
56040;BME280;43937;41.366;2.072;2024-03-02T12:57:30;99533.00;;;21.47;47.82
56040;BME280;43937;41.366;2.072;2024-03-02T13:00:05;99535.84;;;21.20;48.48
56040;BME280;43937;41.366;2.072;2024-03-02T13:02:36;99531.84;;;21.00;48.43
56040;BME280;43937;41.366;2.072;2024-03-02T13:05:02;99527.00;;;20.53;49.20
56040;BME280;43937;41.366;2.072;2024-03-02T13:07:28;99518.72;;;20.53;48.75